createdAt,value
2022-10-05T00:00:32.873Z,6.93
2022-10-05T00:04:11.814Z,6.90
2022-10-05T00:07:35.441Z,7.40
2022-10-05T00:10:59.598Z,8.10
2022-10-05T00:14:27.975Z,7.77
2022-10-05T00:17:51.748Z,6.73
2022-10-05T00:21:22.730Z,7.03
2022-10-05T00:24:47.031Z,7.10
2022-10-05T00:28:17.819Z,6.90
2022-10-05T00:31:41.820Z,7.70
2022-10-05T00:35:06.250Z,6.90
2022-10-05T00:38:31.254Z,7.80
2022-10-05T00:42:09.018Z,7.23
2022-10-05T00:45:37.004Z,7.50
2022-10-05T00:49:10.997Z,7.80
2022-10-05T00:52:42.462Z,7.67
2022-10-05T00:56:17.629Z,7.60
2022-10-05T00:59:52.902Z,7.00
2022-10-05T01:03:24.129Z,8.10
2022-10-05T01:07:00.555Z,7.70
2022-10-05T01:10:31.741Z,8.40
2022-10-05T01:14:06.313Z,7.13
2022-10-05T01:17:39.938Z,7.30
2022-10-05T01:21:07.450Z,7.33
2022-10-05T01:24:58.165Z,7.90
2022-10-05T01:28:26.975Z,7.57
2022-10-05T01:31:57.740Z,6.80
2022-10-05T01:35:34.462Z,7.30
2022-10-05T01:39:06.090Z,6.47
2022-10-05T01:42:38.853Z,7.70
2022-10-05T01:46:15.445Z,7.17
2022-10-05T01:49:46.833Z,7.20
2022-10-05T01:53:24.505Z,7.70
2022-10-05T01:56:58.556Z,7.13
2022-10-05T02:00:22.595Z,7.30
2022-10-05T02:03:52.810Z,7.07
2022-10-05T02:07:22.531Z,6.97
2022-10-05T02:10:51.834Z,7.20
2022-10-05T02:14:20.520Z,7.80
2022-10-05T02:17:49.895Z,8.50
2022-10-05T02:21:15.939Z,7.50
2022-10-05T02:24:42.862Z,8.10
2022-10-05T02:28:11.326Z,6.87
2022-10-05T02:31:41.586Z,7.80
2022-10-05T02:35:14.809Z,8.40
2022-10-05T02:38:52.567Z,8.20
2022-10-05T02:42:24.910Z,7.83
2022-10-05T02:45:57.190Z,8.37
2022-10-05T02:49:30.041Z,8.57
2022-10-05T02:53:03.614Z,8.47
2022-10-05T02:56:37.428Z,8.67
2022-10-05T03:00:07.010Z,8.83
2022-10-05T03:03:36.534Z,9.13
2022-10-05T03:07:11.010Z,8.10
2022-10-05T03:10:42.293Z,9.53
2022-10-05T03:14:14.449Z,9.10
2022-10-05T03:17:46.954Z,9.63
2022-10-05T03:21:24.084Z,8.67
2022-10-05T03:25:13.742Z,9.07
2022-10-05T03:28:47.374Z,9.20
2022-10-05T03:32:21.909Z,7.50
2022-10-05T03:35:52.975Z,8.73
2022-10-05T03:39:24.182Z,8.83
2022-10-05T03:43:06.667Z,7.13
2022-10-05T03:46:44.731Z,8.70
2022-10-05T03:50:30.628Z,7.93
2022-10-05T03:53:58.303Z,7.17
2022-10-05T03:57:26.319Z,8.40
2022-10-05T04:00:57.172Z,9.23
2022-10-05T04:04:27.422Z,8.07
2022-10-05T04:07:57.420Z,9.10
2022-10-05T04:11:25.169Z,8.57
2022-10-05T04:14:51.956Z,7.90
2022-10-05T04:18:24.474Z,8.73
2022-10-05T04:21:52.708Z,9.33
2022-10-05T04:25:21.354Z,8.40
2022-10-05T04:28:55.513Z,8.17
2022-10-05T04:32:32.058Z,8.40
2022-10-05T04:36:09.509Z,8.63
2022-10-05T04:39:42.515Z,8.73
2022-10-05T04:43:14.063Z,9.37
2022-10-05T04:46:52.217Z,8.87
2022-10-05T04:50:27.480Z,8.63
2022-10-05T04:54:11.022Z,8.37
2022-10-05T04:57:41.548Z,8.60
2022-10-05T05:01:20.275Z,9.23
2022-10-05T05:05:17.865Z,8.20
2022-10-05T05:08:57.928Z,7.87
2022-10-05T05:12:30.034Z,9.40
2022-10-05T05:15:59.659Z,9.23
2022-10-05T05:19:37.830Z,7.60
2022-10-05T05:23:09.403Z,8.27
2022-10-05T05:26:45.423Z,8.70
2022-10-05T05:30:18.232Z,8.90
2022-10-05T05:33:55.074Z,8.43
2022-10-05T05:37:32.232Z,9.17
2022-10-05T05:41:08.227Z,6.53
2022-10-05T05:44:39.077Z,9.50
2022-10-05T05:48:14.798Z,8.60
2022-10-05T05:51:43.322Z,8.47
2022-10-05T05:55:15.993Z,8.47
2022-10-05T05:58:46.396Z,8.77
2022-10-05T06:02:14.056Z,8.00
2022-10-05T06:05:43.234Z,9.40
2022-10-05T06:09:17.438Z,8.40
2022-10-05T06:13:07.507Z,8.97
2022-10-05T06:16:36.263Z,8.73
2022-10-05T06:20:05.532Z,9.13
2022-10-05T06:23:38.242Z,8.40
2022-10-05T06:27:25.498Z,8.53
2022-10-05T06:31:01.620Z,7.03
2022-10-05T06:34:58.795Z,8.20
2022-10-05T06:38:38.079Z,9.73
2022-10-05T06:42:21.232Z,8.70
2022-10-05T06:46:19.448Z,8.00
2022-10-05T06:50:14.741Z,8.77
2022-10-05T06:54:04.094Z,7.30
2022-10-05T06:57:53.118Z,7.87
2022-10-05T07:01:29.534Z,7.33
2022-10-05T07:05:13.580Z,9.07
2022-10-05T07:08:51.619Z,8.50
2022-10-05T07:12:52.095Z,9.30
2022-10-05T07:16:28.238Z,8.13
2022-10-05T07:19:59.417Z,7.43
2022-10-05T07:23:32.010Z,6.73
2022-10-05T07:27:10.583Z,7.13
2022-10-05T07:30:42.252Z,8.00
2022-10-05T07:34:18.825Z,6.83
2022-10-05T07:37:57.722Z,7.50
2022-10-05T07:41:34.827Z,6.93
2022-10-05T07:45:08.683Z,7.00
2022-10-05T07:48:45.951Z,6.23
2022-10-05T07:52:18.140Z,5.80
2022-10-05T07:55:48.645Z,6.83
2022-10-05T07:59:20.062Z,6.90
2022-10-05T08:02:50.327Z,7.30
2022-10-05T08:06:31.272Z,6.83
2022-10-05T08:10:04.072Z,7.23
2022-10-05T08:13:36.745Z,7.40
2022-10-05T08:17:03.626Z,6.53
2022-10-05T08:20:41.445Z,6.83
2022-10-05T08:24:14.476Z,7.67
2022-10-05T08:27:46.821Z,7.80
2022-10-05T08:31:19.829Z,6.43
2022-10-05T08:34:50.443Z,7.27
2022-10-05T08:38:16.762Z,6.70
2022-10-05T08:42:05.203Z,7.10
2022-10-05T08:46:09.746Z,7.07
2022-10-05T08:50:05.885Z,6.70
2022-10-05T08:54:09.341Z,7.13
2022-10-05T08:57:55.706Z,5.80
2022-10-05T09:01:27.660Z,6.67
2022-10-05T09:05:12.379Z,7.57
2022-10-05T09:09:11.127Z,6.77
2022-10-05T09:12:52.440Z,6.80
2022-10-05T09:16:46.052Z,7.20
2022-10-05T09:20:25.312Z,6.10
2022-10-05T09:24:00.196Z,7.20
2022-10-05T09:27:36.758Z,6.50
2022-10-05T09:31:22.213Z,5.60
2022-10-05T09:35:04.927Z,6.60
2022-10-05T09:38:43.121Z,6.40
2022-10-05T09:42:34.087Z,6.07
2022-10-05T09:46:35.802Z,5.73
2022-10-05T09:50:24.673Z,6.53
2022-10-05T09:54:34.215Z,5.90
2022-10-05T09:58:24.785Z,5.70
2022-10-05T10:02:15.256Z,5.80
2022-10-05T10:06:11.132Z,6.00
2022-10-05T10:09:51.913Z,5.60
2022-10-05T10:13:45.651Z,5.40
2022-10-05T10:17:37.446Z,5.83
2022-10-05T10:21:18.480Z,5.50
2022-10-05T10:25:08.148Z,5.13
2022-10-05T10:29:06.020Z,4.80
2022-10-05T10:33:11.691Z,5.00
2022-10-05T10:37:02.560Z,5.30
2022-10-05T10:40:37.878Z,5.50
2022-10-05T10:44:34.874Z,4.67
2022-10-05T10:48:04.893Z,5.17
2022-10-05T10:52:04.544Z,5.20
2022-10-05T10:55:48.515Z,4.87
2022-10-05T11:00:01.160Z,5.47
2022-10-05T11:04:03.350Z,5.60
2022-10-05T11:08:03.663Z,5.20
2022-10-05T11:11:53.248Z,5.03
2022-10-05T11:15:54.390Z,4.97
2022-10-05T11:19:46.381Z,4.87
2022-10-05T11:23:43.720Z,4.70
2022-10-05T11:27:26.210Z,4.70
2022-10-05T11:31:22.001Z,5.60
2022-10-05T11:35:04.507Z,4.80
2022-10-05T11:38:52.778Z,5.27
2022-10-05T11:42:56.119Z,4.90
2022-10-05T11:46:25.573Z,5.90
2022-10-05T11:49:59.161Z,5.07
2022-10-05T11:53:29.025Z,5.30
2022-10-05T11:56:58.473Z,5.03
2022-10-05T12:00:25.714Z,4.90
2022-10-05T12:03:59.664Z,4.90
2022-10-05T12:07:28.709Z,4.50
2022-10-05T12:11:04.053Z,3.80
2022-10-05T12:14:37.840Z,4.13
2022-10-05T12:18:10.345Z,4.00
2022-10-05T12:21:38.656Z,3.87
2022-10-05T12:25:17.640Z,4.00
2022-10-05T12:28:47.453Z,3.80
2022-10-05T12:32:17.617Z,3.50
2022-10-05T12:35:49.146Z,3.20
2022-10-05T12:39:21.834Z,3.53
2022-10-05T12:42:52.892Z,3.60
2022-10-05T12:46:26.248Z,3.77
2022-10-05T12:50:01.759Z,3.13
2022-10-05T12:53:49.210Z,3.67
2022-10-05T12:57:24.157Z,3.30
2022-10-05T13:00:54.098Z,3.20
2022-10-05T13:04:28.650Z,3.50
2022-10-05T13:08:10.624Z,3.93
2022-10-05T13:11:42.680Z,4.10
2022-10-05T13:15:16.758Z,3.50
2022-10-05T13:18:49.928Z,3.33
2022-10-05T13:22:36.455Z,3.33
2022-10-05T13:26:07.738Z,3.00
2022-10-05T13:29:39.686Z,2.80
2022-10-05T13:33:09.085Z,2.80
2022-10-05T13:36:43.244Z,2.57
2022-10-05T13:40:18.576Z,3.23
2022-10-05T13:43:49.286Z,3.00
2022-10-05T13:47:21.924Z,2.77
2022-10-05T13:50:52.306Z,3.33
2022-10-05T13:54:24.063Z,2.97
2022-10-05T13:57:57.819Z,2.77
2022-10-05T14:01:29.937Z,3.00
2022-10-05T14:05:00.638Z,2.80
2022-10-05T14:08:28.255Z,3.10
2022-10-05T14:11:54.965Z,2.60
2022-10-05T14:15:23.076Z,3.33
2022-10-05T14:18:55.893Z,3.20
2022-10-05T14:22:24.717Z,3.57
2022-10-05T14:25:53.746Z,2.90
2022-10-05T14:29:19.552Z,3.23
2022-10-05T14:32:49.898Z,3.63
2022-10-05T14:36:17.097Z,2.90
2022-10-05T14:39:43.434Z,2.93
2022-10-05T14:43:20.270Z,2.90
2022-10-05T14:46:54.338Z,3.30
2022-10-05T14:50:21.225Z,3.10
2022-10-05T14:53:56.832Z,2.90
2022-10-05T14:57:32.038Z,3.20
2022-10-05T15:01:02.881Z,3.27
2022-10-05T15:04:42.867Z,3.03
2022-10-05T15:08:18.585Z,2.70
2022-10-05T15:11:49.544Z,3.30
2022-10-05T15:15:27.011Z,2.80
2022-10-05T15:18:57.692Z,2.73
2022-10-05T15:22:31.590Z,2.73
2022-10-05T15:26:08.277Z,2.97
2022-10-05T15:29:49.821Z,3.10
2022-10-05T15:33:27.663Z,3.00
2022-10-05T15:36:58.704Z,2.67
2022-10-05T15:40:29.725Z,2.50
2022-10-05T15:44:06.150Z,2.60
2022-10-05T15:47:44.761Z,3.00
2022-10-05T15:51:18.678Z,2.77
2022-10-05T15:55:06.404Z,2.63
2022-10-05T15:58:47.920Z,2.70
2022-10-05T16:02:18.886Z,2.53
2022-10-05T16:06:05.289Z,2.50
2022-10-05T16:09:43.028Z,2.50
2022-10-05T16:13:20.063Z,3.30
2022-10-05T16:16:52.097Z,2.50
2022-10-05T16:20:30.498Z,3.03
2022-10-05T16:24:05.735Z,2.73
2022-10-05T16:27:40.973Z,2.80
2022-10-05T16:31:13.170Z,3.60
2022-10-05T16:34:54.120Z,2.57
2022-10-05T16:38:26.945Z,3.10
2022-10-05T16:42:00.966Z,2.83
2022-10-05T16:45:53.058Z,2.80
2022-10-05T16:49:27.469Z,3.03
2022-10-05T16:52:57.611Z,2.80
2022-10-05T16:56:26.104Z,2.70
2022-10-05T17:00:20.072Z,2.60
2022-10-05T17:04:00.036Z,2.70
2022-10-05T17:07:55.015Z,2.93
2022-10-05T17:11:31.531Z,2.70
2022-10-05T17:15:11.668Z,3.00
2022-10-05T17:19:06.145Z,3.00
2022-10-05T17:22:34.366Z,5.70
2022-10-05T17:26:06.329Z,3.03
2022-10-05T17:29:47.400Z,2.60
2022-10-05T17:33:26.347Z,3.37
2022-10-05T17:36:57.712Z,3.57
2022-10-05T17:40:35.385Z,4.27
2022-10-05T17:44:27.538Z,3.87
2022-10-05T17:47:57.751Z,2.80
2022-10-05T17:52:16.787Z,2.60
2022-10-05T17:55:45.686Z,3.20
2022-10-05T17:59:10.616Z,3.20
2022-10-05T18:02:43.669Z,3.20
2022-10-05T18:06:31.682Z,3.10
2022-10-05T18:10:21.877Z,3.50
2022-10-05T18:13:49.855Z,10.30
2022-10-05T18:17:14.364Z,3.77
2022-10-05T18:20:39.825Z,4.47
2022-10-05T18:24:36.388Z,3.77
2022-10-05T18:28:20.903Z,3.57
2022-10-05T18:31:54.398Z,4.50
2022-10-05T18:35:24.061Z,3.47
2022-10-05T18:38:59.289Z,3.60
2022-10-05T18:42:30.510Z,3.77
2022-10-05T18:46:07.953Z,4.03
2022-10-05T18:49:43.323Z,4.00
2022-10-05T18:53:19.127Z,4.20
2022-10-05T18:56:47.402Z,4.27
2022-10-05T19:00:16.338Z,4.00
2022-10-05T19:03:52.908Z,3.90
2022-10-05T19:07:27.298Z,3.90
2022-10-05T19:10:55.543Z,3.87
2022-10-05T19:14:29.207Z,3.67
2022-10-05T19:18:14.588Z,4.50
2022-10-05T19:21:47.725Z,3.50
2022-10-05T19:25:24.944Z,3.60
2022-10-05T19:29:00.290Z,3.77
2022-10-05T19:32:32.681Z,3.80
2022-10-05T19:36:18.419Z,3.23
2022-10-05T19:39:51.430Z,4.07
2022-10-05T19:43:57.297Z,4.47
2022-10-05T19:47:40.273Z,3.70
2022-10-05T19:51:12.118Z,3.13
2022-10-05T19:54:36.403Z,3.97
2022-10-05T19:58:01.375Z,3.73
2022-10-05T20:01:27.114Z,3.30
2022-10-05T20:04:54.829Z,3.03
2022-10-05T20:08:20.574Z,4.07
2022-10-05T20:11:50.852Z,3.83
2022-10-05T20:15:37.979Z,3.53
2022-10-05T20:19:19.407Z,3.03
2022-10-05T20:22:46.981Z,3.13
2022-10-05T20:26:57.997Z,3.57
2022-10-05T20:30:24.741Z,3.20
2022-10-05T20:33:48.397Z,3.17
2022-10-05T20:37:13.814Z,3.10
2022-10-05T20:40:37.693Z,3.33
2022-10-05T20:44:01.292Z,2.70
2022-10-05T20:47:26.857Z,2.70
2022-10-05T20:50:50.451Z,3.77
2022-10-05T20:54:18.886Z,3.20
2022-10-05T20:57:42.538Z,3.57
2022-10-05T21:01:19.589Z,3.57
2022-10-05T21:04:47.643Z,3.70
2022-10-05T21:08:11.229Z,2.83
2022-10-05T21:11:34.868Z,3.63
2022-10-05T21:14:59.540Z,3.40
2022-10-05T21:18:23.095Z,3.50
2022-10-05T21:21:48.099Z,4.13
2022-10-05T21:25:11.871Z,3.27
2022-10-05T21:28:35.565Z,3.40
2022-10-05T21:31:59.454Z,3.33
2022-10-05T21:35:23.646Z,3.53
2022-10-05T21:38:48.666Z,2.90
2022-10-05T21:42:12.250Z,3.10
2022-10-05T21:45:35.992Z,3.20
2022-10-05T21:49:00.034Z,2.73
2022-10-05T21:52:23.938Z,2.83
2022-10-05T21:55:52.292Z,3.40
2022-10-05T21:59:19.397Z,3.27
2022-10-05T22:02:43.038Z,3.70
2022-10-05T22:06:07.696Z,3.00
2022-10-05T22:09:31.426Z,3.17
2022-10-05T22:13:00.690Z,3.47
2022-10-05T22:16:26.873Z,3.47
2022-10-05T22:19:50.918Z,3.30
2022-10-05T22:23:14.612Z,2.90
2022-10-05T22:26:38.516Z,3.13
2022-10-05T22:30:03.841Z,3.30
2022-10-05T22:33:27.427Z,2.83
2022-10-05T22:36:51.687Z,3.53
2022-10-05T22:40:15.293Z,2.90
2022-10-05T22:43:39.864Z,3.40
2022-10-05T22:47:05.466Z,3.03
2022-10-05T22:50:29.323Z,3.07
2022-10-05T22:53:52.950Z,3.17
2022-10-05T22:57:16.660Z,3.40
2022-10-05T23:00:57.681Z,2.70
2022-10-05T23:04:23.271Z,3.20
2022-10-05T23:07:47.545Z,3.10
2022-10-05T23:11:13.758Z,3.67
2022-10-05T23:14:37.310Z,2.77
2022-10-05T23:18:01.720Z,3.80
2022-10-05T23:21:31.077Z,3.90
2022-10-05T23:24:55.148Z,3.77
2022-10-05T23:28:18.868Z,3.70
2022-10-05T23:31:42.800Z,2.60
2022-10-05T23:35:08.096Z,2.27
2022-10-05T23:38:35.894Z,2.40
2022-10-05T23:42:01.091Z,2.50
2022-10-05T23:45:24.689Z,2.90
2022-10-05T23:48:48.894Z,2.93
2022-10-05T23:52:12.562Z,2.70
2022-10-05T23:55:37.562Z,2.60
2022-10-05T23:59:01.210Z,2.40
